Tug "trevor" — WCP6921 — position and weather

sailwx.info

Track history (hours):
 
Tides and Currents Weather Stations Pressure Air Temp Water Temp Dewpoint Dewpoint Depression Visibility Wind Speed Wind Dir Waves Ship Positions

Tug "trevor"

Owner: WEEKS MARINE, INC., CRANFORD, NJ. More information available from US FCC via Universal Licensing System and Coast Guard Vessel Documentation Center.

Last reported at 2017-Mar-25 01:24 UTC. Time now 2017-Mar-25 02:04 UTC.
Position N 40°27' W 073°54'.

Length 21 m; draft 3 m.

Type: Towing. MMSI: 366643140.

Date/timePositionNaut miles runAvg speedWind from/ knotsBaromVisibWave heightAir tempDewpointWater temp
2017-Mar-25 01:24N 40°27' W 073°54'8 9.4
2017-Mar-25 00:33N 40°33' W 074°02'8 7.8
2017-Mar-24 23:34N 40°41' W 074°05'2 2.2
2017-Mar-24 22:33N 40°39' W 074°07'0 0.0
2017-Mar-24 21:33N 40°39' W 074°07'0 0.0
2017-Mar-24 20:33N 40°39' W 074°07'0 0.0
2017-Mar-24 19:33N 40°39' W 074°07'0 0.0
2017-Mar-24 18:33N 40°39' W 074°07'0 0.0
2017-Mar-24 17:33N 40°39' W 074°07'3 2.5
2017-Mar-24 16:33N 40°39' W 074°10'1 0.0
2017-Mar-23 08:33N 40°38' W 074°12'6 5.9
2017-Mar-23 07:33N 40°41' W 074°05'0 0.0
2017-Mar-23 06:33N 40°41' W 074°05'0 0.0
2017-Mar-23 05:33N 40°41' W 074°05'0 0.0
2017-Mar-23 04:33N 40°41' W 074°05'0 0.0
2017-Mar-23 03:33N 40°41' W 074°05'0 0.0
2017-Mar-23 02:33N 40°41' W 074°05'0 0.0
2017-Mar-23 01:33N 40°41' W 074°05'0 0.0
2017-Mar-23 00:33N 40°41' W 074°05'0 0.0
2017-Mar-22 23:33N 40°41' W 074°05'0 0.0
2017-Mar-22 22:33N 40°41' W 074°05'0 0.0
2017-Mar-22 21:33N 40°41' W 074°05'0 0.0
2017-Mar-22 20:33N 40°41' W 074°05'0 0.1
2017-Mar-22 19:33N 40°41' W 074°05'0 0.0
2017-Mar-22 18:33N 40°41' W 074°05'0 0.0
2017-Mar-22 17:33N 40°41' W 074°05'0 0.0
2017-Mar-22 16:33N 40°41' W 074°05'0 0.0
2017-Mar-22 15:33N 40°41' W 074°05'0 0.0
2017-Mar-22 14:33N 40°41' W 074°05'0 0.0
2017-Mar-22 13:33N 40°41' W 074°05'0 0.0
2017-Mar-22 12:33N 40°41' W 074°05'0 0.0
2017-Mar-22 11:33N 40°41' W 074°05'0 0.0
2017-Mar-22 10:33N 40°41' W 074°05'0 0.0
2017-Mar-22 09:33N 40°41' W 074°05'0 0.0
2017-Mar-22 08:33N 40°41' W 074°05'0 0.0
2017-Mar-22 07:33N 40°41' W 074°05'0 0.0
2017-Mar-22 06:33N 40°41' W 074°05'0 0.0
2017-Mar-22 05:33N 40°41' W 074°05'0 0.0
2017-Mar-22 04:33N 40°41' W 074°05'0 0.0
2017-Mar-22 03:33N 40°41' W 074°05'0 0.1
2017-Mar-22 02:34N 40°40' W 074°04'6 5.9
2017-Mar-22 01:33N 40°35' W 074°02'28 5.3
2017-Mar-21 20:21N 40°07' W 073°59'13 7.3
2017-Mar-21 18:32N 39°54' W 074°01'8 7.6
2017-Mar-21 17:27N 39°46' W 074°00'7 7.3
2017-Mar-21 16:30N 39°39' W 074°03'65 4.6
2017-Mar-21 02:22N 39°16' W 075°21'7 9.0
2017-Mar-21 01:33N 39°22' W 075°27'8 8.4
2017-Mar-21 00:33N 39°28' W 075°34'8 7.6
2017-Mar-20 23:33N 39°36' W 075°34'6 6.1
2017-Mar-20 22:33N 39°41' W 075°31'  
2017-Mar-15 13:21N 39°49' W 075°22'1 1.4
2017-Mar-15 12:33N 39°49' W 075°23'1 1.1
2017-Mar-15 11:23N 39°49' W 075°25'1 0.7
2017-Mar-15 10:33N 39°49' W 075°24'  
Track history (hours):
 
Tides and Currents Weather Stations Pressure Air Temp Water Temp Dewpoint Dewpoint Depression Visibility Wind Speed Wind Dir Waves Ship Positions

Tug "trevor"

Owner: WEEKS MARINE, INC., CRANFORD, NJ. More information available from US FCC via Universal Licensing System and Coast Guard Vessel Documentation Center.

Last reported at 2017-Mar-25 01:24 UTC. Time now 2017-Mar-25 02:04 UTC.
Position N 40°27' W 073°54'.

Length 21 m; draft 3 m.

Type: Towing. MMSI: 366643140.

Date/timePositionNaut miles runAvg speedWind from/ knotsBaromVisibWave heightAir tempDewpointWater temp
2017-Mar-25 01:24N 40°27' W 073°54'8 9.4
2017-Mar-25 00:33N 40°33' W 074°02'8 7.8
2017-Mar-24 23:34N 40°41' W 074°05'2 2.2
2017-Mar-24 22:33N 40°39' W 074°07'0 0.0
2017-Mar-24 21:33N 40°39' W 074°07'0 0.0
2017-Mar-24 20:33N 40°39' W 074°07'0 0.0
2017-Mar-24 19:33N 40°39' W 074°07'0 0.0
2017-Mar-24 18:33N 40°39' W 074°07'0 0.0
2017-Mar-24 17:33N 40°39' W 074°07'3 2.5
2017-Mar-24 16:33N 40°39' W 074°10'1 0.0
2017-Mar-23 08:33N 40°38' W 074°12'6 5.9
2017-Mar-23 07:33N 40°41' W 074°05'0 0.0
2017-Mar-23 06:33N 40°41' W 074°05'0 0.0
2017-Mar-23 05:33N 40°41' W 074°05'0 0.0
2017-Mar-23 04:33N 40°41' W 074°05'0 0.0
2017-Mar-23 03:33N 40°41' W 074°05'0 0.0
2017-Mar-23 02:33N 40°41' W 074°05'0 0.0
2017-Mar-23 01:33N 40°41' W 074°05'0 0.0
2017-Mar-23 00:33N 40°41' W 074°05'0 0.0
2017-Mar-22 23:33N 40°41' W 074°05'0 0.0
2017-Mar-22 22:33N 40°41' W 074°05'0 0.0
2017-Mar-22 21:33N 40°41' W 074°05'0 0.0
2017-Mar-22 20:33N 40°41' W 074°05'0 0.1
2017-Mar-22 19:33N 40°41' W 074°05'0 0.0
2017-Mar-22 18:33N 40°41' W 074°05'0 0.0
2017-Mar-22 17:33N 40°41' W 074°05'0 0.0
2017-Mar-22 16:33N 40°41' W 074°05'0 0.0
2017-Mar-22 15:33N 40°41' W 074°05'0 0.0
2017-Mar-22 14:33N 40°41' W 074°05'0 0.0
2017-Mar-22 13:33N 40°41' W 074°05'0 0.0
2017-Mar-22 12:33N 40°41' W 074°05'0 0.0
2017-Mar-22 11:33N 40°41' W 074°05'0 0.0
2017-Mar-22 10:33N 40°41' W 074°05'0 0.0
2017-Mar-22 09:33N 40°41' W 074°05'0 0.0
2017-Mar-22 08:33N 40°41' W 074°05'0 0.0
2017-Mar-22 07:33N 40°41' W 074°05'0 0.0
2017-Mar-22 06:33N 40°41' W 074°05'0 0.0
2017-Mar-22 05:33N 40°41' W 074°05'0 0.0
2017-Mar-22 04:33N 40°41' W 074°05'0 0.0
2017-Mar-22 03:33N 40°41' W 074°05'0 0.1
2017-Mar-22 02:34N 40°40' W 074°04'6 5.9
2017-Mar-22 01:33N 40°35' W 074°02'28 5.3
2017-Mar-21 20:21N 40°07' W 073°59'13 7.3
2017-Mar-21 18:32N 39°54' W 074°01'8 7.6
2017-Mar-21 17:27N 39°46' W 074°00'7 7.3
2017-Mar-21 16:30N 39°39' W 074°03'65 4.6
2017-Mar-21 02:22N 39°16' W 075°21'7 9.0
2017-Mar-21 01:33N 39°22' W 075°27'8 8.4
2017-Mar-21 00:33N 39°28' W 075°34'8 7.6
2017-Mar-20 23:33N 39°36' W 075°34'6 6.1
2017-Mar-20 22:33N 39°41' W 075°31'  
2017-Mar-15 13:21N 39°49' W 075°22'1 1.4
2017-Mar-15 12:33N 39°49' W 075°23'1 1.1
2017-Mar-15 11:23N 39°49' W 075°25'1 0.7
2017-Mar-15 10:33N 39°49' W 075°24'  

Dump ship's entire track history